createdAt,value
2023-03-13T00:00:04.962Z,80.26
2023-03-13T00:02:06.763Z,80.03
2023-03-13T00:04:09.391Z,80.87
2023-03-13T00:06:11.513Z,80.70
2023-03-13T00:08:13.217Z,81.03
2023-03-13T00:10:14.860Z,80.70
2023-03-13T00:12:16.444Z,80.32
2023-03-13T00:14:17.978Z,78.92
2023-03-13T00:16:19.719Z,79.20
2023-03-13T00:18:21.353Z,79.17
2023-03-13T00:20:22.865Z,79.09
2023-03-13T00:22:24.407Z,78.76
2023-03-13T00:24:26.034Z,78.30
2023-03-13T00:26:28.953Z,77.85
2023-03-13T00:28:32.965Z,78.75
2023-03-13T00:30:34.488Z,78.13
2023-03-13T00:32:42.053Z,78.82
2023-03-13T00:34:44.153Z,79.16
2023-03-13T00:36:45.749Z,78.78
2023-03-13T00:38:47.980Z,78.52
2023-03-13T00:40:49.510Z,77.86
2023-03-13T00:42:51.150Z,78.13
2023-03-13T00:44:52.654Z,78.65
2023-03-13T00:46:54.221Z,79.09
2023-03-13T00:48:56.690Z,78.78
2023-03-13T00:50:58.180Z,79.01
2023-03-13T00:52:59.644Z,79.01
2023-03-13T00:55:04.093Z,78.90
2023-03-13T00:57:05.724Z,78.59
2023-03-13T00:59:07.381Z,79.20
2023-03-13T01:01:22.168Z,78.41
2023-03-13T01:03:25.798Z,78.17
2023-03-13T01:05:27.483Z,78.84
2023-03-13T01:07:29.711Z,78.91
2023-03-13T01:09:31.253Z,79.90
2023-03-13T01:11:36.079Z,78.76
2023-03-13T01:13:38.378Z,79.13
2023-03-13T01:15:39.973Z,79.61
2023-03-13T01:17:44.171Z,80.48
2023-03-13T01:19:47.133Z,80.28
2023-03-13T01:21:48.674Z,79.87
2023-03-13T01:23:51.442Z,79.72
2023-03-13T01:25:54.521Z,79.56
2023-03-13T01:27:56.075Z,79.28
2023-03-13T01:29:57.797Z,78.83
2023-03-13T01:31:59.308Z,78.71
2023-03-13T01:34:03.864Z,78.71
2023-03-13T01:36:06.596Z,78.39
2023-03-13T01:38:09.597Z,78.17
2023-03-13T01:40:12.388Z,78.21
2023-03-13T01:42:14.416Z,78.60
2023-03-13T01:44:25.624Z,79.15
2023-03-13T01:46:30.315Z,79.45
2023-03-13T01:49:09.652Z,79.58
2023-03-13T01:51:21.755Z,79.48
2023-03-13T01:53:25.245Z,80.82
2023-03-13T01:55:27.161Z,80.11
2023-03-13T01:57:40.516Z,79.74
2023-03-13T01:59:53.693Z,79.72
2023-03-13T02:01:59.164Z,81.06
2023-03-13T02:04:01.627Z,80.80
2023-03-13T02:06:05.743Z,80.43
2023-03-13T02:08:32.687Z,80.27
2023-03-13T02:10:41.621Z,79.90
2023-03-13T02:12:43.567Z,80.21
2023-03-13T02:14:46.913Z,80.48
2023-03-13T02:16:52.185Z,79.65
2023-03-13T02:18:53.950Z,79.89
2023-03-13T02:21:07.898Z,79.86
2023-03-13T02:23:44.878Z,80.22
2023-03-13T02:25:49.303Z,79.69
2023-03-13T02:27:58.512Z,79.54
2023-03-13T02:30:00.442Z,79.82
2023-03-13T02:32:02.045Z,80.36
2023-03-13T02:34:04.671Z,79.37
2023-03-13T02:36:07.939Z,80.04
2023-03-13T02:38:14.091Z,79.94
2023-03-13T02:40:21.611Z,80.01
2023-03-13T02:42:24.540Z,79.96
2023-03-13T02:44:26.597Z,80.04
2023-03-13T02:46:28.456Z,80.62
2023-03-13T02:48:44.980Z,80.53
2023-03-13T02:50:46.777Z,82.32
2023-03-13T02:52:53.540Z,82.51
2023-03-13T02:55:02.921Z,82.98
2023-03-13T02:57:04.980Z,83.13
2023-03-13T02:59:07.661Z,84.04
2023-03-13T03:01:11.705Z,84.50
2023-03-13T03:03:15.556Z,84.72
2023-03-13T03:05:17.265Z,85.04
2023-03-13T03:07:19.010Z,85.97
2023-03-13T03:09:21.938Z,87.10
2023-03-13T03:11:25.767Z,87.02
2023-03-13T03:13:33.934Z,88.22
2023-03-13T03:15:35.761Z,89.22
2023-03-13T03:17:39.111Z,89.52
2023-03-13T03:19:40.644Z,90.22
2023-03-13T03:21:43.958Z,90.01
2023-03-13T03:23:45.499Z,90.73
2023-03-13T03:25:47.118Z,91.49
2023-03-13T03:27:49.757Z,93.04
2023-03-13T03:29:51.288Z,92.45
2023-03-13T03:31:52.900Z,92.95
2023-03-13T03:33:54.553Z,93.17
2023-03-13T03:36:04.779Z,93.32
2023-03-13T03:38:06.536Z,94.85
2023-03-13T03:40:11.189Z,95.65
2023-03-13T03:42:12.785Z,96.29
2023-03-13T03:44:20.474Z,96.12
2023-03-13T03:46:28.683Z,96.18
2023-03-13T03:48:31.289Z,96.12
2023-03-13T03:50:32.851Z,96.10
2023-03-13T03:52:36.813Z,96.21
2023-03-13T03:54:38.389Z,96.85
2023-03-13T03:56:39.912Z,97.22
2023-03-13T03:58:41.582Z,98.54
2023-03-13T04:00:51.308Z,98.81
2023-03-13T04:02:53.148Z,99.57
2023-03-13T04:04:54.821Z,99.17
2023-03-13T04:07:01.253Z,98.39
2023-03-13T04:09:04.780Z,98.39
2023-03-13T04:11:07.239Z,97.65
2023-03-13T04:13:12.596Z,97.20
2023-03-13T04:15:14.368Z,97.72
2023-03-13T04:17:16.633Z,98.26
2023-03-13T04:19:19.839Z,98.21
2023-03-13T04:21:21.544Z,98.48
2023-03-13T04:23:31.797Z,99.28
2023-03-13T04:25:34.017Z,99.13
2023-03-13T04:27:37.328Z,98.63
2023-03-13T04:29:39.566Z,99.28
2023-03-13T04:31:56.769Z,99.57
2023-03-13T04:34:17.166Z,98.80
2023-03-13T04:36:39.107Z,99.70
2023-03-13T04:39:11.892Z,100.00
2023-03-13T04:41:31.999Z,100.00
2023-03-13T04:43:59.759Z,100.00
2023-03-13T04:46:04.644Z,99.59
2023-03-13T04:48:27.365Z,99.88
2023-03-13T04:50:39.043Z,100.00
2023-03-13T04:53:09.575Z,100.00
2023-03-13T04:55:25.685Z,100.00
2023-03-13T04:57:45.676Z,100.00
2023-03-13T04:59:59.612Z,100.00
2023-03-13T05:02:15.426Z,100.00
2023-03-13T05:04:36.018Z,100.00
2023-03-13T05:07:00.729Z,100.00
2023-03-13T05:09:11.845Z,100.00
2023-03-13T05:11:34.355Z,100.00
2023-03-13T05:13:50.999Z,100.00
2023-03-13T05:16:11.766Z,100.00
2023-03-13T05:18:31.711Z,100.00
2023-03-13T05:20:43.226Z,100.00
2023-03-13T05:23:03.450Z,100.00
2023-03-13T05:25:21.251Z,100.00
2023-03-13T05:27:39.504Z,100.00
2023-03-13T05:30:01.533Z,100.00
2023-03-13T05:32:12.752Z,100.00
2023-03-13T05:34:26.620Z,100.00
2023-03-13T05:36:40.770Z,100.00
2023-03-13T05:39:07.423Z,100.00
2023-03-13T05:41:23.873Z,100.00
2023-03-13T05:43:44.437Z,100.00
2023-03-13T05:46:01.719Z,100.00
2023-03-13T05:48:21.342Z,100.00
2023-03-13T05:50:47.144Z,100.00
2023-03-13T05:52:51.599Z,100.00
2023-03-13T05:55:28.263Z,100.00
2023-03-13T05:57:45.488Z,100.00
2023-03-13T06:00:16.883Z,100.00
2023-03-13T06:02:53.628Z,100.00
2023-03-13T06:05:01.780Z,100.00
2023-03-13T06:07:03.619Z,100.00
2023-03-13T06:09:05.991Z,100.00
2023-03-13T06:11:08.933Z,100.00
2023-03-13T06:13:19.676Z,100.00
2023-03-13T06:15:23.584Z,100.00
2023-03-13T06:17:36.555Z,100.00
2023-03-13T06:19:38.055Z,100.00
2023-03-13T06:21:39.567Z,100.00
2023-03-13T06:23:42.144Z,100.00
2023-03-13T06:25:47.020Z,100.00
2023-03-13T06:27:48.583Z,100.00
2023-03-13T06:29:50.132Z,100.00
2023-03-13T06:31:51.752Z,100.00
2023-03-13T06:33:56.616Z,100.00
2023-03-13T06:36:00.960Z,100.00
2023-03-13T06:38:02.786Z,100.00
2023-03-13T06:40:06.257Z,100.00
2023-03-13T06:42:08.035Z,100.00
2023-03-13T06:44:09.654Z,100.00
2023-03-13T06:46:20.535Z,100.00
2023-03-13T06:48:24.972Z,100.00
2023-03-13T06:50:26.561Z,100.00
2023-03-13T06:52:41.239Z,100.00
2023-03-13T06:54:44.761Z,100.00
2023-03-13T06:56:46.319Z,100.00
2023-03-13T06:58:49.142Z,100.00
2023-03-13T07:00:50.709Z,100.00
2023-03-13T07:02:52.202Z,100.00
2023-03-13T07:04:53.826Z,100.00
2023-03-13T07:06:55.303Z,100.00
2023-03-13T07:08:56.880Z,100.00
2023-03-13T07:11:01.968Z,100.00
2023-03-13T07:13:03.596Z,100.00
2023-03-13T07:15:06.757Z,100.00
2023-03-13T07:17:08.301Z,100.00
2023-03-13T07:19:10.071Z,100.00
2023-03-13T07:21:12.738Z,100.00
2023-03-13T07:23:14.235Z,100.00
2023-03-13T07:25:15.931Z,100.00
2023-03-13T07:27:20.774Z,100.00
2023-03-13T07:29:22.440Z,100.00
2023-03-13T07:31:24.481Z,100.00
2023-03-13T07:33:26.081Z,100.00
2023-03-13T07:35:27.540Z,100.00
2023-03-13T07:37:29.028Z,100.00
2023-03-13T07:39:30.677Z,100.00
2023-03-13T07:41:32.200Z,100.00
2023-03-13T07:43:33.935Z,100.00
2023-03-13T07:45:35.516Z,100.00
2023-03-13T07:47:37.087Z,100.00
2023-03-13T07:49:42.016Z,100.00
2023-03-13T07:51:44.709Z,100.00
2023-03-13T07:53:50.463Z,100.00
2023-03-13T07:56:13.411Z,100.00
2023-03-13T07:58:15.031Z,100.00
2023-03-13T08:00:18.598Z,100.00
2023-03-13T08:02:20.150Z,100.00
2023-03-13T08:04:21.665Z,100.00
2023-03-13T08:06:24.988Z,100.00
2023-03-13T08:08:26.484Z,100.00
2023-03-13T08:10:28.150Z,100.00
2023-03-13T08:12:29.677Z,100.00
2023-03-13T08:14:31.233Z,100.00
2023-03-13T08:16:34.716Z,100.00
2023-03-13T08:18:38.518Z,100.00
2023-03-13T08:20:40.021Z,100.00
2023-03-13T08:22:41.522Z,100.00
2023-03-13T08:24:43.126Z,100.00
2023-03-13T08:26:44.709Z,100.00
2023-03-13T08:28:48.469Z,100.00
2023-03-13T08:30:50.036Z,100.00
2023-03-13T08:32:51.664Z,100.00
2023-03-13T08:34:53.239Z,100.00
2023-03-13T08:36:54.939Z,100.00
2023-03-13T08:39:00.428Z,100.00
2023-03-13T08:41:01.931Z,100.00
2023-03-13T08:43:03.458Z,100.00
2023-03-13T08:45:06.170Z,100.00
2023-03-13T08:47:08.772Z,100.00
2023-03-13T08:49:11.088Z,100.00
2023-03-13T08:51:14.958Z,100.00
2023-03-13T08:53:16.478Z,100.00
2023-03-13T08:55:18.080Z,100.00
2023-03-13T08:57:19.688Z,100.00
2023-03-13T08:59:21.199Z,100.00
2023-03-13T09:01:25.294Z,100.00
2023-03-13T09:03:26.868Z,100.00
2023-03-13T09:05:28.474Z,100.00
2023-03-13T09:07:30.112Z,100.00
2023-03-13T09:09:31.619Z,100.00
2023-03-13T09:11:33.293Z,100.00
2023-03-13T09:13:37.235Z,100.00
2023-03-13T09:15:38.883Z,99.79
2023-03-13T09:17:40.510Z,100.00
2023-03-13T09:19:57.667Z,99.77
2023-03-13T09:22:01.316Z,100.00
2023-03-13T09:24:03.356Z,98.97
2023-03-13T09:26:05.333Z,99.00
2023-03-13T09:28:06.868Z,99.16
2023-03-13T09:30:09.237Z,99.15
2023-03-13T09:32:11.401Z,99.55
2023-03-13T09:34:13.108Z,99.79
2023-03-13T09:36:15.406Z,99.60
2023-03-13T09:38:18.242Z,99.18
2023-03-13T09:40:22.888Z,99.65
2023-03-13T09:42:50.399Z,99.34
2023-03-13T09:45:35.741Z,99.53
2023-03-13T09:48:07.232Z,98.76
2023-03-13T09:50:21.725Z,98.64
2023-03-13T09:52:25.371Z,97.51
2023-03-13T09:55:01.615Z,98.11
2023-03-13T09:57:22.378Z,97.44
2023-03-13T09:59:43.522Z,97.36
2023-03-13T10:01:47.380Z,97.02
2023-03-13T10:04:07.603Z,97.18
2023-03-13T10:06:18.700Z,96.73
2023-03-13T10:08:23.880Z,96.35
2023-03-13T10:10:51.684Z,95.87
2023-03-13T10:13:00.557Z,96.13
2023-03-13T10:15:28.149Z,96.05
2023-03-13T10:17:40.344Z,95.66
2023-03-13T10:19:43.530Z,94.64
2023-03-13T10:21:50.319Z,94.65
2023-03-13T10:24:00.559Z,94.81
2023-03-13T10:26:02.127Z,94.53
2023-03-13T10:28:04.798Z,94.08
2023-03-13T10:30:07.068Z,93.89
2023-03-13T10:32:12.746Z,94.33
2023-03-13T10:34:15.302Z,94.50
2023-03-13T10:36:16.942Z,94.27
2023-03-13T10:38:20.950Z,94.08
2023-03-13T10:40:28.130Z,95.50
2023-03-13T10:42:36.444Z,94.10
2023-03-13T10:44:38.330Z,94.51
2023-03-13T10:46:46.370Z,94.53
2023-03-13T10:48:48.067Z,94.46
2023-03-13T10:50:53.057Z,93.58
2023-03-13T10:52:57.604Z,93.69
2023-03-13T10:55:06.241Z,93.00
2023-03-13T10:57:25.978Z,92.76
2023-03-13T10:59:27.844Z,92.69
2023-03-13T11:01:40.819Z,93.08
2023-03-13T11:03:43.769Z,92.84
2023-03-13T11:06:01.526Z,92.92
2023-03-13T11:08:35.567Z,92.04
2023-03-13T11:10:37.341Z,93.03
2023-03-13T11:12:57.487Z,93.39
2023-03-13T11:15:01.405Z,94.28
2023-03-13T11:17:23.319Z,93.56
2023-03-13T11:19:53.590Z,93.28
2023-03-13T11:22:05.436Z,91.75
2023-03-13T11:24:30.079Z,92.74
2023-03-13T11:26:35.390Z,92.59
2023-03-13T11:28:51.705Z,93.17
2023-03-13T11:31:12.204Z,91.20
2023-03-13T11:33:25.768Z,91.46
2023-03-13T11:35:47.169Z,91.26
2023-03-13T11:37:55.489Z,91.35
2023-03-13T11:40:20.347Z,90.31
2023-03-13T11:42:41.287Z,90.53
2023-03-13T11:44:51.678Z,90.25
2023-03-13T11:47:43.642Z,90.45
2023-03-13T11:50:09.992Z,89.97
2023-03-13T11:52:29.320Z,91.40
2023-03-13T11:54:33.868Z,89.63
2023-03-13T11:56:52.832Z,89.74
2023-03-13T11:59:21.672Z,89.09
2023-03-13T12:01:29.382Z,88.46
2023-03-13T12:03:44.597Z,88.89
2023-03-13T12:05:59.262Z,89.20
2023-03-13T12:08:07.361Z,88.26
2023-03-13T12:10:15.976Z,87.97
2023-03-13T12:12:40.290Z,87.21
2023-03-13T12:14:48.889Z,87.48
2023-03-13T12:17:05.974Z,87.02
2023-03-13T12:19:14.281Z,86.72
2023-03-13T12:21:28.329Z,85.68
2023-03-13T12:23:35.921Z,85.50
2023-03-13T12:25:45.728Z,84.57
2023-03-13T12:27:58.217Z,84.99
2023-03-13T12:30:02.947Z,84.84
2023-03-13T12:32:15.714Z,84.49
2023-03-13T12:34:30.099Z,83.74
2023-03-13T12:36:52.664Z,84.37
2023-03-13T12:39:09.316Z,85.52
2023-03-13T12:41:20.006Z,84.61
2023-03-13T12:43:36.700Z,82.75
2023-03-13T12:45:54.963Z,82.91
2023-03-13T12:48:09.461Z,82.73
2023-03-13T12:50:24.903Z,82.18
2023-03-13T12:52:29.449Z,82.88
2023-03-13T12:55:04.748Z,82.32
2023-03-13T12:57:15.997Z,81.76
2023-03-13T12:59:26.987Z,81.03
2023-03-13T13:01:35.599Z,83.35
2023-03-13T13:03:46.077Z,81.85
2023-03-13T13:06:07.636Z,77.74
2023-03-13T13:08:24.951Z,76.91
2023-03-13T13:10:27.540Z,76.15
2023-03-13T13:12:30.098Z,75.24
2023-03-13T13:14:31.644Z,71.40
2023-03-13T13:16:33.671Z,69.71
2023-03-13T13:18:35.296Z,69.31
2023-03-13T13:20:42.544Z,69.47
2023-03-13T13:22:46.254Z,70.60
2023-03-13T13:24:52.981Z,70.06
2023-03-13T13:26:54.625Z,71.47
2023-03-13T13:28:58.364Z,71.21
2023-03-13T13:31:00.038Z,73.57
2023-03-13T13:33:30.477Z,71.16
2023-03-13T13:35:34.977Z,70.56
2023-03-13T13:37:36.527Z,71.30
2023-03-13T13:39:47.879Z,70.17
2023-03-13T13:41:49.574Z,70.38
2023-03-13T13:44:24.855Z,68.60
2023-03-13T13:46:34.338Z,66.79
2023-03-13T13:48:43.009Z,67.97
2023-03-13T13:51:14.955Z,62.39
2023-03-13T13:53:41.978Z,62.69
2023-03-13T13:55:44.730Z,58.61
2023-03-13T13:57:49.305Z,57.32
2023-03-13T14:00:20.988Z,58.75
2023-03-13T14:02:25.642Z,61.13
2023-03-13T14:04:30.709Z,57.96
2023-03-13T14:06:36.017Z,58.35
2023-03-13T14:08:41.139Z,54.67
2023-03-13T14:10:46.927Z,55.82
2023-03-13T14:12:57.154Z,57.35
2023-03-13T14:15:19.896Z,61.39
2023-03-13T14:17:21.650Z,61.74
2023-03-13T14:19:30.441Z,61.08
2023-03-13T14:21:33.067Z,56.84
2023-03-13T14:23:43.649Z,55.83
2023-03-13T14:25:47.868Z,54.74
2023-03-13T14:27:50.830Z,54.00
2023-03-13T14:30:09.299Z,52.22
2023-03-13T14:32:11.014Z,53.97
2023-03-13T14:34:13.423Z,52.26
2023-03-13T14:36:15.882Z,52.66
2023-03-13T14:38:22.538Z,57.64
2023-03-13T14:40:27.143Z,56.12
2023-03-13T14:42:28.678Z,53.03
2023-03-13T14:44:36.394Z,55.05
2023-03-13T14:46:41.837Z,55.60
2023-03-13T14:48:43.726Z,56.08
2023-03-13T14:50:45.793Z,56.46
2023-03-13T14:52:53.573Z,60.30
2023-03-13T14:54:57.849Z,58.63
2023-03-13T14:57:09.321Z,62.01
2023-03-13T14:59:18.129Z,63.42
2023-03-13T15:01:30.550Z,64.64
2023-03-13T15:03:33.232Z,66.23
2023-03-13T15:05:34.772Z,64.99
2023-03-13T15:07:48.434Z,63.16
2023-03-13T15:09:50.794Z,60.34
2023-03-13T15:11:58.816Z,61.42
2023-03-13T15:14:01.081Z,62.38
2023-03-13T15:16:14.053Z,64.57
2023-03-13T15:18:29.571Z,64.39
2023-03-13T15:20:31.092Z,63.85
2023-03-13T15:22:38.572Z,66.40
2023-03-13T15:24:40.302Z,66.31
2023-03-13T15:26:41.916Z,67.66
2023-03-13T15:28:43.558Z,67.56
2023-03-13T15:30:47.776Z,67.20
2023-03-13T15:32:49.917Z,68.09
2023-03-13T15:34:52.534Z,68.78
2023-03-13T15:36:54.072Z,67.22
2023-03-13T15:38:56.185Z,68.14
2023-03-13T15:40:57.806Z,67.83
2023-03-13T15:42:59.470Z,66.94
2023-03-13T15:45:01.091Z,68.06
2023-03-13T15:47:02.673Z,68.15
2023-03-13T15:49:05.019Z,68.96
2023-03-13T15:51:06.961Z,69.43
2023-03-13T15:53:16.558Z,68.71
2023-03-13T15:55:18.166Z,69.18
2023-03-13T15:57:24.069Z,69.42
2023-03-13T15:59:25.728Z,68.73
2023-03-13T16:01:28.403Z,69.46
2023-03-13T16:03:30.233Z,70.02
2023-03-13T16:05:31.848Z,68.47
2023-03-13T16:07:33.505Z,68.27
2023-03-13T16:09:35.103Z,68.51
2023-03-13T16:11:36.673Z,71.74
2023-03-13T16:13:38.209Z,78.54
2023-03-13T16:15:39.862Z,83.50
2023-03-13T16:17:41.504Z,85.83
2023-03-13T16:19:44.234Z,87.58
2023-03-13T16:21:48.372Z,89.08
2023-03-13T16:23:50.161Z,90.99
2023-03-13T16:25:51.859Z,90.52
2023-03-13T16:27:54.917Z,91.92
2023-03-13T16:29:56.486Z,90.99
2023-03-13T16:31:57.996Z,92.06
2023-03-13T16:34:00.894Z,91.52
2023-03-13T16:36:02.582Z,90.01
2023-03-13T16:38:04.382Z,89.21
2023-03-13T16:40:30.669Z,90.33
2023-03-13T16:42:32.275Z,91.58
2023-03-13T16:44:33.923Z,91.01
2023-03-13T16:46:40.422Z,91.26
2023-03-13T16:48:42.875Z,91.88
2023-03-13T16:50:46.537Z,91.53
2023-03-13T16:52:48.347Z,91.97
2023-03-13T16:54:50.084Z,92.07
2023-03-13T16:56:51.642Z,92.04
2023-03-13T16:58:54.206Z,91.41
2023-03-13T17:01:05.030Z,91.74
2023-03-13T17:03:07.880Z,92.21
2023-03-13T17:05:12.309Z,92.65
2023-03-13T17:07:19.744Z,92.73
2023-03-13T17:09:21.324Z,94.44
2023-03-13T17:11:23.263Z,95.59
2023-03-13T17:13:25.070Z,95.46
2023-03-13T17:15:28.809Z,95.14
2023-03-13T17:17:30.604Z,94.37
2023-03-13T17:19:32.444Z,93.52
2023-03-13T17:21:36.429Z,93.17
2023-03-13T17:23:37.975Z,93.68
2023-03-13T17:25:40.316Z,92.78
2023-03-13T17:27:42.940Z,93.04
2023-03-13T17:29:44.395Z,93.59
2023-03-13T17:31:45.916Z,93.66
2023-03-13T17:33:47.951Z,94.16
2023-03-13T17:35:49.495Z,94.21
2023-03-13T17:37:51.208Z,94.11
2023-03-13T17:39:52.907Z,94.52
2023-03-13T17:41:54.527Z,92.76
2023-03-13T17:43:56.412Z,93.09
2023-03-13T17:45:58.014Z,93.94
2023-03-13T17:47:59.758Z,94.02
2023-03-13T17:50:01.431Z,94.93
2023-03-13T17:52:03.041Z,95.08
2023-03-13T17:54:04.712Z,94.50
2023-03-13T17:56:19.445Z,94.53
2023-03-13T17:58:21.058Z,93.59
2023-03-13T18:00:31.659Z,94.15
2023-03-13T18:02:33.166Z,94.58
2023-03-13T18:04:34.875Z,94.66
2023-03-13T18:06:38.211Z,96.13
2023-03-13T18:08:39.834Z,96.72
2023-03-13T18:10:41.505Z,95.89
2023-03-13T18:12:43.103Z,96.17
2023-03-13T18:14:44.998Z,95.47
2023-03-13T18:16:48.664Z,94.73
2023-03-13T18:18:50.713Z,94.79
2023-03-13T18:20:52.310Z,94.62
2023-03-13T18:22:59.125Z,95.17
2023-03-13T18:25:00.983Z,95.12
2023-03-13T18:27:04.084Z,95.23
2023-03-13T18:29:25.833Z,95.27
2023-03-13T18:31:32.527Z,96.07
2023-03-13T18:33:34.120Z,96.13
2023-03-13T18:35:35.692Z,95.90
2023-03-13T18:37:37.248Z,94.76
2023-03-13T18:39:38.862Z,95.13
2023-03-13T18:41:40.732Z,95.35
2023-03-13T18:43:43.366Z,95.14
2023-03-13T18:45:45.553Z,95.72
2023-03-13T18:47:48.140Z,94.76
2023-03-13T18:49:51.030Z,95.22
2023-03-13T18:51:56.501Z,94.70
2023-03-13T18:53:58.057Z,95.31
2023-03-13T18:56:08.819Z,95.61
2023-03-13T18:58:11.454Z,95.87
2023-03-13T19:00:25.413Z,95.74
2023-03-13T19:02:27.250Z,95.53
2023-03-13T19:04:28.981Z,95.28
2023-03-13T19:06:33.628Z,95.35
2023-03-13T19:08:35.252Z,94.93
2023-03-13T19:10:38.453Z,95.45
2023-03-13T19:12:40.057Z,95.45
2023-03-13T19:14:42.088Z,95.76
2023-03-13T19:16:48.664Z,96.11
2023-03-13T19:18:51.670Z,95.77
2023-03-13T19:20:53.152Z,97.07
2023-03-13T19:22:57.878Z,97.08
2023-03-13T19:24:59.397Z,97.38
2023-03-13T19:27:01.291Z,97.98
2023-03-13T19:29:04.363Z,96.92
2023-03-13T19:31:05.854Z,97.75
2023-03-13T19:33:07.361Z,98.27
2023-03-13T19:35:09.256Z,98.23
2023-03-13T19:37:16.270Z,98.53
2023-03-13T19:39:21.431Z,98.26
2023-03-13T19:41:23.191Z,98.26
2023-03-13T19:43:24.829Z,98.98
2023-03-13T19:45:27.612Z,98.71
2023-03-13T19:47:29.142Z,99.22
2023-03-13T19:49:31.358Z,99.83
2023-03-13T19:51:32.864Z,99.72
2023-03-13T19:53:34.706Z,99.19
2023-03-13T19:55:36.372Z,99.03
2023-03-13T19:57:37.871Z,97.80
2023-03-13T19:59:39.997Z,96.86
2023-03-13T20:01:41.749Z,96.73
2023-03-13T20:03:44.144Z,96.00
2023-03-13T20:05:45.683Z,94.83
2023-03-13T20:07:48.180Z,94.69
2023-03-13T20:09:49.755Z,93.65
2023-03-13T20:11:51.312Z,94.73
2023-03-13T20:13:53.150Z,93.52
2023-03-13T20:15:54.950Z,93.44
2023-03-13T20:17:56.418Z,93.47
2023-03-13T20:19:58.009Z,94.06
2023-03-13T20:22:03.406Z,93.98
2023-03-13T20:24:05.184Z,94.17
2023-03-13T20:26:09.673Z,94.42
2023-03-13T20:28:11.540Z,95.00
2023-03-13T20:30:13.160Z,95.28
2023-03-13T20:32:14.760Z,94.54
2023-03-13T20:34:16.300Z,94.11
2023-03-13T20:36:19.780Z,94.27
2023-03-13T20:38:21.252Z,95.19
2023-03-13T20:40:22.902Z,98.08
2023-03-13T20:42:24.528Z,97.98
2023-03-13T20:44:26.092Z,97.91
2023-03-13T20:46:28.205Z,99.24
2023-03-13T20:48:30.439Z,97.99
2023-03-13T20:50:32.144Z,97.71
2023-03-13T20:52:33.697Z,96.25
2023-03-13T20:54:35.864Z,96.40
2023-03-13T20:56:37.534Z,96.21
2023-03-13T20:58:39.226Z,95.33
2023-03-13T21:00:41.426Z,94.92
2023-03-13T21:02:43.394Z,94.23
2023-03-13T21:04:44.995Z,93.06
2023-03-13T21:06:46.735Z,93.63
2023-03-13T21:08:48.397Z,92.46
2023-03-13T21:10:49.912Z,92.99
2023-03-13T21:12:52.484Z,91.79
2023-03-13T21:14:55.257Z,92.22
2023-03-13T21:16:57.022Z,92.09
2023-03-13T21:18:58.956Z,91.64
2023-03-13T21:21:08.827Z,91.77
2023-03-13T21:23:10.581Z,92.32
2023-03-13T21:25:12.907Z,93.24
2023-03-13T21:27:15.047Z,92.67
2023-03-13T21:29:18.097Z,93.64
2023-03-13T21:31:21.702Z,93.84
2023-03-13T21:33:24.179Z,92.95
2023-03-13T21:35:25.893Z,92.32
2023-03-13T21:37:29.049Z,93.44
2023-03-13T21:39:30.959Z,93.65
2023-03-13T21:41:35.167Z,93.50
2023-03-13T21:43:37.395Z,92.51
2023-03-13T21:45:39.088Z,93.23
2023-03-13T21:47:40.615Z,93.99
2023-03-13T21:49:42.129Z,93.52
2023-03-13T21:51:43.696Z,92.08
2023-03-13T21:53:45.286Z,93.11
2023-03-13T21:55:53.736Z,92.72
2023-03-13T21:57:55.406Z,91.38
2023-03-13T21:59:56.977Z,91.95
2023-03-13T22:01:58.881Z,91.22
2023-03-13T22:04:00.409Z,91.39
2023-03-13T22:06:02.154Z,91.41
2023-03-13T22:08:04.006Z,89.92
2023-03-13T22:10:06.060Z,89.52
2023-03-13T22:12:07.584Z,89.04
2023-03-13T22:14:09.273Z,87.28
2023-03-13T22:16:11.504Z,86.40
2023-03-13T22:18:17.322Z,87.53
2023-03-13T22:20:19.250Z,88.54
2023-03-13T22:22:21.843Z,88.47
2023-03-13T22:24:23.610Z,88.75
2023-03-13T22:26:25.160Z,88.79
2023-03-13T22:28:26.816Z,88.27
2023-03-13T22:30:28.339Z,88.25
2023-03-13T22:32:30.514Z,88.47
2023-03-13T22:34:32.293Z,88.36
2023-03-13T22:36:33.841Z,88.17
2023-03-13T22:38:38.808Z,88.73
2023-03-13T22:40:40.407Z,88.77
2023-03-13T22:42:41.895Z,88.04
2023-03-13T22:44:43.496Z,87.62
2023-03-13T22:46:45.246Z,88.67
2023-03-13T22:48:46.962Z,89.14
2023-03-13T22:50:48.568Z,88.42
2023-03-13T22:52:50.189Z,88.88
2023-03-13T22:54:51.951Z,88.84
2023-03-13T22:56:53.804Z,89.78
2023-03-13T22:58:55.270Z,89.62
2023-03-13T23:00:56.946Z,89.52
2023-03-13T23:02:58.689Z,89.68
2023-03-13T23:05:01.175Z,89.94
2023-03-13T23:07:02.872Z,90.36
2023-03-13T23:09:05.248Z,90.74
2023-03-13T23:11:09.169Z,90.15
2023-03-13T23:13:11.346Z,90.22
2023-03-13T23:15:12.970Z,90.84
2023-03-13T23:17:14.495Z,90.85
2023-03-13T23:19:19.985Z,91.19
2023-03-13T23:21:24.387Z,91.17
2023-03-13T23:23:31.682Z,90.41
2023-03-13T23:25:39.712Z,90.67
2023-03-13T23:27:47.924Z,91.30
2023-03-13T23:29:54.857Z,90.84
2023-03-13T23:32:02.236Z,90.78
2023-03-13T23:34:03.927Z,91.14
2023-03-13T23:36:11.044Z,91.94
2023-03-13T23:38:13.271Z,92.50
2023-03-13T23:40:15.469Z,92.62
2023-03-13T23:42:17.870Z,92.56
2023-03-13T23:44:19.546Z,92.61
2023-03-13T23:46:23.947Z,91.81
2023-03-13T23:48:25.548Z,92.23
2023-03-13T23:50:27.227Z,92.71
2023-03-13T23:52:28.781Z,93.40
2023-03-13T23:54:30.263Z,93.84
2023-03-13T23:56:31.952Z,94.05
2023-03-13T23:58:33.970Z,93.71
